createdAt,value
2019-06-26T00:00:11.866Z,0.0
2019-06-26T00:01:30.530Z,0.0
2019-06-26T00:01:44.509Z,0.0
2019-06-26T00:03:17.051Z,0.0
2019-06-26T00:03:39.920Z,0.0
2019-06-26T00:04:38.987Z,0.0
2019-06-26T00:06:00.478Z,0.0
2019-06-26T00:07:36.215Z,0.0
2019-06-26T00:07:47.462Z,0.0
2019-06-26T00:09:28.417Z,0.0
2019-06-26T00:10:10.044Z,0.0
2019-06-26T00:11:02.618Z,0.0
2019-06-26T00:12:23.396Z,0.0
2019-06-26T00:13:26.018Z,0.0
2019-06-26T00:14:19.126Z,0.0
2019-06-26T00:15:07.057Z,0.0
2019-06-26T00:16:12.094Z,0.0
2019-06-26T00:17:27.561Z,0.0
2019-06-26T00:18:09.170Z,0.0
2019-06-26T00:19:32.455Z,0.0
2019-06-26T00:20:26.418Z,0.0
2019-06-26T00:21:50.974Z,0.0
2019-06-26T00:23:09.602Z,0.0
2019-06-26T00:24:23.769Z,0.0
2019-06-26T00:25:30.466Z,0.0
2019-06-26T00:26:30.507Z,0.0
2019-06-26T00:27:49.311Z,0.0
2019-06-26T00:29:00.672Z,0.0
2019-06-26T00:29:54.360Z,0.0
2019-06-26T00:31:14.935Z,0.0
2019-06-26T00:32:22.101Z,0.0
2019-06-26T00:33:06.270Z,0.0
2019-06-26T00:36:07.953Z,0.0
2019-06-26T00:37:11.651Z,0.0
2019-06-26T00:38:48.159Z,0.0
2019-06-26T00:39:48.135Z,0.0
2019-06-26T00:40:13.716Z,0.0
2019-06-26T00:41:13.727Z,0.0
2019-06-26T00:41:56.219Z,0.0
2019-06-26T00:42:58.008Z,0.0
2019-06-26T00:43:58.207Z,0.0
2019-06-26T00:45:03.719Z,0.0
2019-06-26T00:45:56.692Z,0.0
2019-06-26T00:47:01.183Z,0.0
2019-06-26T00:47:56.811Z,0.0
2019-06-26T00:48:58.236Z,0.0
2019-06-26T00:50:09.163Z,0.0
2019-06-26T00:50:57.422Z,0.0
2019-06-26T00:52:15.521Z,0.0
2019-06-26T00:53:04.723Z,0.0
2019-06-26T00:55:11.804Z,0.0
2019-06-26T00:56:17.077Z,0.0
2019-06-26T00:57:30.276Z,0.0
2019-06-26T00:58:28.503Z,0.0
2019-06-26T00:59:43.176Z,0.0
2019-06-26T01:00:36.659Z,0.0
2019-06-26T01:01:38.711Z,0.0
2019-06-26T01:02:30.609Z,0.0
2019-06-26T01:03:25.806Z,0.0
2019-06-26T01:04:21.823Z,0.0
2019-06-26T01:05:23.461Z,0.0
2019-06-26T01:06:30.467Z,0.0
2019-06-26T01:07:24.904Z,0.0
2019-06-26T01:08:20.414Z,0.0
2019-06-26T01:09:21.868Z,0.0
2019-06-26T01:10:36.371Z,0.0
2019-06-26T01:11:34.718Z,0.0
2019-06-26T01:12:19.010Z,0.0
2019-06-26T01:14:34.278Z,0.0
2019-06-26T01:15:30.400Z,0.0
2019-06-26T01:16:31.253Z,0.0
2019-06-26T01:17:33.654Z,0.0
2019-06-26T01:18:32.821Z,0.0
2019-06-26T01:19:34.949Z,0.0
2019-06-26T01:20:43.563Z,0.0
2019-06-26T01:21:29.903Z,0.0
2019-06-26T01:22:40.400Z,0.0
2019-06-26T01:23:31.318Z,0.0
2019-06-26T01:24:27.585Z,0.0
2019-06-26T01:25:34.897Z,0.0
2019-06-26T01:26:29.771Z,0.0
2019-06-26T01:27:49.708Z,0.0
2019-06-26T01:28:55.133Z,0.0
2019-06-26T01:29:51.731Z,0.0
2019-06-26T01:30:46.207Z,0.0
2019-06-26T01:31:57.535Z,0.0
2019-06-26T01:33:16.350Z,0.0
2019-06-26T01:34:01.747Z,0.0
2019-06-26T01:34:44.483Z,0.0
2019-06-26T01:35:55.586Z,0.0
2019-06-26T01:36:45.431Z,0.0
2019-06-26T01:37:44.578Z,0.0
2019-06-26T01:38:46.379Z,0.0
2019-06-26T01:39:32.998Z,0.0
2019-06-26T01:40:59.687Z,0.0
2019-06-26T01:41:31.551Z,0.0
2019-06-26T01:42:41.060Z,0.0
2019-06-26T01:43:36.195Z,0.0
2019-06-26T01:44:28.626Z,0.0
2019-06-26T01:46:10.219Z,0.0
2019-06-26T01:47:17.940Z,0.0
2019-06-26T01:48:19.567Z,0.0
2019-06-26T01:48:57.204Z,0.0
2019-06-26T01:50:06.812Z,0.0
2019-06-26T01:51:05.008Z,0.0
2019-06-26T01:52:03.561Z,0.0
2019-06-26T01:53:52.043Z,0.0
2019-06-26T01:54:38.714Z,0.0
2019-06-26T01:55:54.855Z,0.0
2019-06-26T01:56:24.169Z,0.0
2019-06-26T01:57:50.971Z,0.0
2019-06-26T01:58:51.215Z,0.0
2019-06-26T01:59:54.855Z,0.0
2019-06-26T02:00:33.765Z,0.0
2019-06-26T02:03:03.446Z,0.0
2019-06-26T02:03:52.745Z,0.0
2019-06-26T02:04:30.207Z,0.0
2019-06-26T02:05:34.898Z,0.0
2019-06-26T02:06:41.567Z,0.0
2019-06-26T02:07:31.719Z,0.0
2019-06-26T02:08:37.190Z,0.0
2019-06-26T02:09:42.238Z,0.0
2019-06-26T02:11:17.099Z,0.0
2019-06-26T02:12:03.232Z,0.0
2019-06-26T02:14:12.310Z,0.0
2019-06-26T02:15:37.700Z,0.0
2019-06-26T02:16:35.379Z,0.0
2019-06-26T02:17:17.395Z,0.0
2019-06-26T02:18:06.111Z,0.0
2019-06-26T02:19:13.853Z,0.0
2019-06-26T02:19:55.937Z,0.0
2019-06-26T02:20:55.444Z,0.0
2019-06-26T02:21:56.128Z,0.0
2019-06-26T02:23:12.603Z,0.0
2019-06-26T02:25:14.271Z,0.0
2019-06-26T02:26:15.187Z,0.0
2019-06-26T02:27:20.869Z,0.0
2019-06-26T02:28:25.905Z,0.0
2019-06-26T02:29:24.011Z,0.0
2019-06-26T02:30:45.916Z,0.0
2019-06-26T02:31:45.518Z,0.0
2019-06-26T02:32:46.285Z,0.0
2019-06-26T02:33:51.967Z,0.0
2019-06-26T02:35:16.125Z,0.0
2019-06-26T02:36:06.949Z,0.0
2019-06-26T02:37:01.812Z,0.0
2019-06-26T02:38:02.636Z,0.0
2019-06-26T02:39:05.905Z,0.0
2019-06-26T02:40:02.069Z,0.0
2019-06-26T02:41:03.462Z,0.0
2019-06-26T02:42:00.460Z,0.0
2019-06-26T02:45:47.312Z,0.0
2019-06-26T02:46:53.381Z,0.0
2019-06-26T02:47:39.500Z,0.0
2019-06-26T02:49:06.104Z,0.0
2019-06-26T02:49:30.910Z,0.0
2019-06-26T02:50:22.312Z,0.0
2019-06-26T02:51:21.721Z,0.0
2019-06-26T02:52:45.925Z,0.0
2019-06-26T02:53:23.247Z,0.0
2019-06-26T02:54:15.305Z,0.0
2019-06-26T02:55:41.604Z,0.0
2019-06-26T02:56:14.210Z,0.0
2019-06-26T02:57:46.306Z,0.0
2019-06-26T02:59:00.842Z,0.0
2019-06-26T03:00:18.947Z,0.0
2019-06-26T03:00:58.617Z,0.0
2019-06-26T03:02:04.451Z,0.0
2019-06-26T03:03:20.431Z,0.0
2019-06-26T03:04:19.370Z,0.0
2019-06-26T03:08:12.639Z,0.0
2019-06-26T03:09:22.401Z,0.0
2019-06-26T03:10:32.857Z,0.0
2019-06-26T03:11:17.757Z,0.0
2019-06-26T03:12:28.349Z,0.0
2019-06-26T03:13:34.850Z,0.0
2019-06-26T03:14:43.936Z,0.0
2019-06-26T03:15:37.193Z,0.0
2019-06-26T03:16:35.102Z,0.0
2019-06-26T03:20:01.541Z,0.0
2019-06-26T03:20:56.819Z,0.0
2019-06-26T03:22:33.513Z,0.0
2019-06-26T03:23:40.177Z,0.0
2019-06-26T03:24:44.755Z,0.0
2019-06-26T03:25:42.756Z,0.0
2019-06-26T03:26:43.541Z,0.0
2019-06-26T03:27:43.183Z,0.0
2019-06-26T03:28:52.136Z,0.0
2019-06-26T03:30:16.733Z,0.0
2019-06-26T03:31:34.813Z,0.0
2019-06-26T03:32:22.400Z,0.0
2019-06-26T03:33:01.814Z,0.0
2019-06-26T03:34:03.490Z,0.0
2019-06-26T03:35:18.034Z,0.0
2019-06-26T03:36:31.930Z,0.0
2019-06-26T03:37:22.461Z,0.0
2019-06-26T03:38:24.669Z,0.0
2019-06-26T03:39:32.257Z,0.0
2019-06-26T03:40:18.797Z,0.0
2019-06-26T03:41:29.199Z,0.0
2019-06-26T03:42:28.165Z,0.0
2019-06-26T03:43:37.263Z,0.0
2019-06-26T03:44:44.477Z,0.0
2019-06-26T03:45:38.146Z,0.0
2019-06-26T03:46:17.447Z,0.0
2019-06-26T03:46:57.431Z,0.0
2019-06-26T03:47:55.141Z,0.0
2019-06-26T03:48:53.473Z,0.0
2019-06-26T03:49:53.536Z,0.0
2019-06-26T03:50:56.892Z,0.0
2019-06-26T03:52:01.586Z,0.0
2019-06-26T03:52:57.300Z,0.0
2019-06-26T03:54:01.128Z,0.0
2019-06-26T03:55:22.939Z,0.0
2019-06-26T03:56:23.538Z,0.0
2019-06-26T03:57:00.700Z,0.0
2019-06-26T03:58:56.576Z,0.0
2019-06-26T03:59:28.517Z,0.0
2019-06-26T04:00:33.059Z,0.0
2019-06-26T04:01:42.024Z,0.0
2019-06-26T04:03:00.597Z,0.0
2019-06-26T04:03:38.072Z,0.0
2019-06-26T04:04:59.948Z,0.0
2019-06-26T04:05:33.690Z,0.0
2019-06-26T04:06:57.049Z,0.0
2019-06-26T04:08:27.831Z,0.0
2019-06-26T04:09:24.286Z,0.0
2019-06-26T04:10:29.276Z,0.0
2019-06-26T04:11:17.052Z,0.0
2019-06-26T04:12:10.454Z,0.0
2019-06-26T04:13:56.776Z,0.0
2019-06-26T04:14:33.644Z,0.0
2019-06-26T04:16:12.592Z,0.0
2019-06-26T04:17:16.613Z,0.0
2019-06-26T04:18:04.389Z,0.0
2019-06-26T04:19:22.044Z,0.0
2019-06-26T04:20:17.595Z,0.0
2019-06-26T04:21:11.351Z,0.0
2019-06-26T04:22:25.357Z,0.0
2019-06-26T04:23:18.101Z,0.0
2019-06-26T04:24:31.921Z,0.0
2019-06-26T04:25:24.669Z,0.0
2019-06-26T04:29:33.043Z,0.0
2019-06-26T04:29:51.558Z,0.0
2019-06-26T04:31:10.249Z,0.0
2019-06-26T04:32:05.456Z,0.0
2019-06-26T04:32:48.339Z,0.0
2019-06-26T04:34:06.110Z,0.0
2019-06-26T04:34:58.505Z,0.0
2019-06-26T04:35:51.622Z,0.0
2019-06-26T04:36:47.221Z,0.0
2019-06-26T04:38:00.677Z,0.0
2019-06-26T04:39:58.975Z,0.0
2019-06-26T04:40:57.847Z,0.0
2019-06-26T04:42:03.811Z,0.0
2019-06-26T04:43:01.400Z,0.0
2019-06-26T04:44:01.850Z,0.0
2019-06-26T04:45:17.084Z,0.0
2019-06-26T04:45:58.830Z,0.0
2019-06-26T04:47:01.860Z,0.0
2019-06-26T04:48:00.870Z,0.0
2019-06-26T04:49:01.813Z,0.0
2019-06-26T04:49:56.944Z,0.0
2019-06-26T04:50:58.208Z,0.0
2019-06-26T04:52:07.144Z,0.0
2019-06-26T04:52:57.615Z,0.0
2019-06-26T04:53:57.082Z,0.0
2019-06-26T04:55:06.813Z,0.0
2019-06-26T04:56:07.459Z,0.0
2019-06-26T04:57:14.826Z,0.0
2019-06-26T04:58:29.431Z,0.0
2019-06-26T04:59:23.469Z,0.0
2019-06-26T05:00:26.191Z,0.0
2019-06-26T05:01:26.406Z,0.0
2019-06-26T05:02:25.535Z,0.0
2019-06-26T05:03:30.013Z,0.0
2019-06-26T05:04:24.053Z,0.0
2019-06-26T05:05:38.521Z,0.0
2019-06-26T05:06:43.378Z,0.0
2019-06-26T05:07:37.344Z,0.0
2019-06-26T05:09:37.742Z,0.0
2019-06-26T05:10:46.038Z,0.0
2019-06-26T05:11:28.377Z,0.0
2019-06-26T05:12:33.125Z,0.0
2019-06-26T05:13:46.123Z,0.0
2019-06-26T05:14:37.218Z,0.0
2019-06-26T05:15:28.660Z,0.0
2019-06-26T05:16:13.650Z,0.0
2019-06-26T05:17:07.374Z,0.0
2019-06-26T05:18:15.321Z,0.0
2019-06-26T05:29:03.666Z,0.0
2019-06-26T05:30:08.659Z,0.0
2019-06-26T05:31:06.143Z,0.0
2019-06-26T05:32:04.459Z,0.0
2019-06-26T05:33:03.802Z,0.0
2019-06-26T05:34:30.726Z,0.0
2019-06-26T05:35:06.874Z,0.0
2019-06-26T05:36:10.740Z,0.0
2019-06-26T05:37:05.396Z,0.0
2019-06-26T05:38:00.105Z,0.0
2019-06-26T05:39:16.508Z,0.0
2019-06-26T05:40:01.211Z,0.0
2019-06-26T05:41:00.653Z,0.0
2019-06-26T05:42:01.314Z,0.0
2019-06-26T05:43:01.571Z,0.0
2019-06-26T05:44:01.526Z,0.0
2019-06-26T05:45:00.222Z,0.0
2019-06-26T05:46:01.492Z,0.0
2019-06-26T05:47:00.746Z,0.0
2019-06-26T05:47:59.980Z,0.0
2019-06-26T05:48:59.954Z,0.0
2019-06-26T05:51:13.173Z,0.0
2019-06-26T05:52:16.463Z,0.0
2019-06-26T05:53:13.890Z,0.0
2019-06-26T05:54:13.805Z,0.0
2019-06-26T05:55:13.117Z,0.0
2019-06-26T05:56:15.347Z,0.0
2019-06-26T05:57:13.111Z,0.0
2019-06-26T05:58:15.870Z,0.0
2019-06-26T05:59:14.541Z,0.0
2019-06-26T06:00:13.369Z,0.0
2019-06-26T06:11:22.618Z,0.0
2019-06-26T06:12:30.190Z,0.0
2019-06-26T06:13:37.453Z,0.0
2019-06-26T06:14:27.323Z,0.0
2019-06-26T06:15:31.185Z,0.0
2019-06-26T06:16:43.174Z,0.0
2019-06-26T06:17:39.817Z,0.0
2019-06-26T06:18:33.271Z,0.0
2019-06-26T06:19:38.275Z,0.0
2019-06-26T06:20:32.754Z,0.0
2019-06-26T06:21:46.551Z,0.0
2019-06-26T06:22:56.042Z,0.0
2019-06-26T06:23:53.078Z,0.0
2019-06-26T06:24:50.277Z,0.0
2019-06-26T06:25:37.138Z,0.0
2019-06-26T06:26:36.337Z,0.0
2019-06-26T06:27:37.138Z,0.0
2019-06-26T06:28:52.486Z,0.0
2019-06-26T06:29:43.675Z,0.0
2019-06-26T06:30:43.793Z,0.0
2019-06-26T06:31:38.243Z,0.0
2019-06-26T06:32:34.324Z,0.0
2019-06-26T06:33:37.187Z,0.0
2019-06-26T06:34:51.725Z,0.0
2019-06-26T06:35:39.633Z,0.0
2019-06-26T06:36:34.325Z,0.0
2019-06-26T06:37:57.717Z,0.0
2019-06-26T06:38:43.973Z,0.0
2019-06-26T06:40:04.009Z,0.0
2019-06-26T06:40:35.757Z,0.0
2019-06-26T06:41:33.635Z,0.0
2019-06-26T06:42:32.382Z,0.0
2019-06-26T06:43:26.446Z,0.0
2019-06-26T06:44:30.141Z,0.0
2019-06-26T06:45:33.508Z,0.0
2019-06-26T06:46:40.379Z,0.0
2019-06-26T06:47:27.665Z,0.0
2019-06-26T06:48:30.844Z,0.0
2019-06-26T06:49:16.290Z,0.0
2019-06-26T06:50:17.585Z,0.0
2019-06-26T06:51:16.931Z,0.0
2019-06-26T06:52:16.768Z,0.0
2019-06-26T06:53:16.197Z,0.0
2019-06-26T06:54:16.311Z,0.0
2019-06-26T06:55:17.105Z,0.0
2019-06-26T06:56:17.554Z,0.0
2019-06-26T06:57:19.841Z,0.0
2019-06-26T06:58:17.593Z,0.0
2019-06-26T06:59:19.003Z,0.0
2019-06-26T07:00:18.787Z,0.0
2019-06-26T07:01:16.318Z,0.0
2019-06-26T07:02:18.347Z,0.0
2019-06-26T07:03:17.563Z,0.0
2019-06-26T07:04:16.989Z,0.0
2019-06-26T07:05:16.991Z,0.0
2019-06-26T07:06:20.476Z,0.0
2019-06-26T07:07:18.876Z,0.0
2019-06-26T07:08:16.302Z,0.0
2019-06-26T07:09:17.391Z,0.0
2019-06-26T07:10:24.145Z,0.0
2019-06-26T07:11:16.309Z,0.0
2019-06-26T07:12:20.902Z,0.0
2019-06-26T07:13:19.004Z,0.0
2019-06-26T07:14:17.464Z,0.0
2019-06-26T07:15:21.995Z,0.0
2019-06-26T07:16:16.911Z,0.0
2019-06-26T07:17:28.969Z,0.0
2019-06-26T07:18:23.296Z,0.0
2019-06-26T07:19:19.499Z,0.0
2019-06-26T07:20:20.447Z,0.0
2019-06-26T07:21:19.235Z,0.0
2019-06-26T07:22:25.155Z,0.0
2019-06-26T07:23:20.340Z,0.0
2019-06-26T07:24:24.153Z,0.0
2019-06-26T07:25:18.151Z,0.0
2019-06-26T07:26:25.958Z,0.0
2019-06-26T07:29:25.547Z,0.0
2019-06-26T07:30:26.400Z,0.0
2019-06-26T07:31:23.982Z,0.0
2019-06-26T07:32:24.873Z,1.6
2019-06-26T07:33:29.157Z,1.6
2019-06-26T07:34:25.297Z,0.5
2019-06-26T07:35:24.327Z,0.5
2019-06-26T07:36:23.715Z,0.5
2019-06-26T07:37:28.440Z,0.0
2019-06-26T07:38:22.951Z,0.0
2019-06-26T07:39:22.403Z,0.0
2019-06-26T07:40:21.803Z,0.0
2019-06-26T07:41:22.411Z,0.0
2019-06-26T07:42:22.497Z,0.0
2019-06-26T07:43:25.663Z,0.0
2019-06-26T07:44:22.527Z,0.0
2019-06-26T07:45:31.347Z,0.0
2019-06-26T07:46:34.621Z,0.0
2019-06-26T07:47:41.830Z,0.0
2019-06-26T07:48:23.446Z,0.0
2019-06-26T07:49:28.911Z,0.0
2019-06-26T07:50:24.300Z,0.0
2019-06-26T07:51:27.955Z,0.0
2019-06-26T07:52:25.228Z,0.0
2019-06-26T07:53:25.279Z,0.0
2019-06-26T07:54:26.816Z,0.0
2019-06-26T07:55:24.314Z,0.0
2019-06-26T07:56:26.621Z,0.0
2019-06-26T07:57:24.953Z,0.0
2019-06-26T07:58:30.519Z,0.0
2019-06-26T07:59:24.505Z,0.0
2019-06-26T08:00:24.266Z,0.0
2019-06-26T08:01:24.669Z,0.0
2019-06-26T08:02:22.437Z,0.0
2019-06-26T08:03:26.170Z,0.0
2019-06-26T08:04:27.635Z,0.0
2019-06-26T08:05:26.627Z,0.0
2019-06-26T08:06:38.764Z,0.0
2019-06-26T08:07:25.985Z,0.0
2019-06-26T08:08:31.273Z,0.0
2019-06-26T08:09:27.376Z,0.0
2019-06-26T08:10:24.905Z,0.0
2019-06-26T08:11:29.042Z,0.0
2019-06-26T08:12:37.311Z,0.0
2019-06-26T08:13:29.826Z,0.0
2019-06-26T08:14:28.855Z,0.0
2019-06-26T08:15:28.206Z,0.0
2019-06-26T08:16:34.322Z,0.0
2019-06-26T08:17:25.656Z,0.0
2019-06-26T08:18:32.667Z,0.2
2019-06-26T08:19:34.069Z,0.2
2019-06-26T08:20:47.046Z,0.0
2019-06-26T08:21:34.461Z,0.0
2019-06-26T08:22:36.861Z,0.0
2019-06-26T08:23:38.836Z,0.0
2019-06-26T08:24:43.673Z,0.0
2019-06-26T08:26:36.855Z,0.0
2019-06-26T08:27:52.038Z,0.0
2019-06-26T08:28:40.987Z,0.0
2019-06-26T08:29:37.249Z,0.0
2019-06-26T08:31:06.934Z,0.0
2019-06-26T08:31:42.912Z,0.0
2019-06-26T08:32:40.865Z,0.0
2019-06-26T08:33:46.295Z,0.0
2019-06-26T08:34:41.914Z,0.0
2019-06-26T08:35:38.025Z,0.0
2019-06-26T08:38:08.997Z,0.0
2019-06-26T08:39:06.209Z,0.0
2019-06-26T08:39:55.893Z,0.0
2019-06-26T08:41:01.434Z,0.0
2019-06-26T08:42:05.664Z,0.0
2019-06-26T08:43:01.964Z,0.0
2019-06-26T08:43:57.822Z,0.0
2019-06-26T08:44:57.111Z,0.0
2019-06-26T08:46:01.587Z,0.0
2019-06-26T08:46:58.654Z,0.0
2019-06-26T08:48:41.890Z,0.0
2019-06-26T08:49:01.493Z,0.0
2019-06-26T08:50:00.186Z,0.0
2019-06-26T08:50:59.696Z,0.0
2019-06-26T08:51:58.592Z,0.0
2019-06-26T08:53:13.487Z,0.0
2019-06-26T08:54:12.580Z,0.0
2019-06-26T08:55:12.992Z,0.0
2019-06-26T08:55:55.658Z,0.0
2019-06-26T08:56:57.610Z,0.0
2019-06-26T08:57:54.031Z,0.0
2019-06-26T08:58:51.409Z,1.6
2019-06-26T08:59:54.661Z,1.6
2019-06-26T09:00:57.957Z,0.0
2019-06-26T09:01:56.806Z,0.0
2019-06-26T09:03:15.386Z,0.0
2019-06-26T09:04:01.251Z,0.0
2019-06-26T09:04:53.517Z,0.0
2019-06-26T09:05:58.445Z,0.0
2019-06-26T09:07:23.197Z,0.0
2019-06-26T09:07:58.570Z,0.0
2019-06-26T09:09:37.627Z,0.0
2019-06-26T09:10:39.249Z,0.0
2019-06-26T09:11:06.100Z,0.0
2019-06-26T09:12:07.770Z,0.0
2019-06-26T09:12:58.830Z,0.0
2019-06-26T09:13:57.332Z,0.0
2019-06-26T09:14:55.275Z,0.0
2019-06-26T09:15:55.308Z,0.0
2019-06-26T09:17:13.386Z,0.2
2019-06-26T09:18:01.669Z,0.2
2019-06-26T09:18:53.583Z,0.0
2019-06-26T09:20:04.512Z,0.0
2019-06-26T09:20:51.764Z,0.0
2019-06-26T09:21:54.953Z,0.0
2019-06-26T09:23:06.900Z,0.0
2019-06-26T09:23:53.623Z,0.0
2019-06-26T09:27:01.424Z,0.0
2019-06-26T09:28:06.551Z,0.0
2019-06-26T09:29:10.329Z,0.0
2019-06-26T09:30:36.678Z,0.0
2019-06-26T09:31:23.805Z,0.0
2019-06-26T09:32:09.177Z,0.0
2019-06-26T09:33:32.839Z,0.0
2019-06-26T09:34:16.780Z,0.0
2019-06-26T09:35:07.485Z,0.0
2019-06-26T09:36:21.880Z,0.0
2019-06-26T09:38:17.209Z,0.0
2019-06-26T09:39:35.687Z,0.2
2019-06-26T09:40:25.816Z,0.2
2019-06-26T09:41:28.123Z,0.2
2019-06-26T09:42:14.373Z,0.0
2019-06-26T09:43:24.180Z,0.0
2019-06-26T09:44:15.559Z,0.0
2019-06-26T09:45:33.710Z,0.0
2019-06-26T09:46:13.342Z,0.0
2019-06-26T09:47:20.722Z,0.0
2019-06-26T09:48:52.018Z,0.0
2019-06-26T09:49:13.881Z,0.0
2019-06-26T09:50:21.208Z,0.0
2019-06-26T09:51:12.690Z,0.0
2019-06-26T09:52:14.888Z,0.2
2019-06-26T09:53:24.511Z,0.2
2019-06-26T09:54:16.507Z,0.2
2019-06-26T09:55:17.097Z,0.2
2019-06-26T09:56:17.326Z,0.2
2019-06-26T09:57:29.874Z,0.0
2019-06-26T10:00:41.023Z,0.0
2019-06-26T10:02:13.291Z,0.0
2019-06-26T10:03:02.579Z,0.0
2019-06-26T10:03:55.264Z,0.0
2019-06-26T10:04:41.859Z,0.2
2019-06-26T10:05:27.639Z,0.2
2019-06-26T10:06:33.935Z,0.2
2019-06-26T10:07:40.849Z,0.8
2019-06-26T10:09:18.278Z,0.8
2019-06-26T10:10:00.377Z,0.8
2019-06-26T10:11:23.475Z,0.0
2019-06-26T10:12:09.531Z,0.0
2019-06-26T10:13:04.805Z,0.0
2019-06-26T10:13:55.286Z,0.0
2019-06-26T10:14:48.801Z,0.2
2019-06-26T10:16:04.469Z,0.2
2019-06-26T10:16:50.771Z,0.2
2019-06-26T10:17:44.641Z,0.2
2019-06-26T10:19:05.752Z,0.2
2019-06-26T10:20:06.724Z,0.8
2019-06-26T10:21:52.980Z,0.8
2019-06-26T10:22:29.049Z,0.8
2019-06-26T10:23:22.054Z,0.2
2019-06-26T10:24:22.323Z,0.2
2019-06-26T10:25:42.687Z,0.0
2019-06-26T10:27:03.403Z,0.0
2019-06-26T10:30:40.066Z,0.0
2019-06-26T10:31:05.667Z,0.0
2019-06-26T10:32:19.323Z,0.0
2019-06-26T10:33:13.333Z,0.0
2019-06-26T10:34:51.516Z,0.0
2019-06-26T10:35:58.673Z,0.0
2019-06-26T10:36:55.564Z,0.0
2019-06-26T10:37:44.315Z,0.0
2019-06-26T10:38:44.061Z,0.0
2019-06-26T10:40:16.148Z,0.0
2019-06-26T10:41:32.069Z,0.0
2019-06-26T10:42:20.309Z,0.0
2019-06-26T10:42:55.689Z,0.0
2019-06-26T10:44:08.909Z,0.0
2019-06-26T10:45:16.574Z,0.0
2019-06-26T10:46:08.341Z,2.2
2019-06-26T10:47:25.550Z,2.2
2019-06-26T10:48:14.502Z,0.8
2019-06-26T10:49:26.939Z,0.8
2019-06-26T10:50:07.923Z,0.8
2019-06-26T10:51:13.317Z,2.7
2019-06-26T10:52:14.786Z,2.7
2019-06-26T10:53:11.780Z,2.7
2019-06-26T10:54:06.494Z,2.7
2019-06-26T10:55:18.818Z,2.7
2019-06-26T10:56:01.291Z,0.2
2019-06-26T10:57:08.802Z,0.2
2019-06-26T10:58:09.790Z,2.2
2019-06-26T10:59:24.292Z,2.2
2019-06-26T11:00:02.616Z,2.2
2019-06-26T11:01:12.681Z,3.3
2019-06-26T11:02:58.742Z,3.3
2019-06-26T11:04:07.427Z,3.3
2019-06-26T11:07:43.560Z,3.3
2019-06-26T11:09:02.344Z,3.3
2019-06-26T11:09:58.555Z,3.3
2019-06-26T11:11:17.218Z,3.3
2019-06-26T11:12:07.783Z,3.3
2019-06-26T11:12:57.956Z,7.5
2019-06-26T11:13:56.118Z,6.1
2019-06-26T11:14:57.795Z,6.1
2019-06-26T11:16:22.717Z,6.1
2019-06-26T11:17:35.939Z,6.1
2019-06-26T11:19:03.935Z,6.1
2019-06-26T11:20:13.477Z,6.1
2019-06-26T11:21:27.815Z,6.1
2019-06-26T11:22:41.106Z,6.1
2019-06-26T11:26:13.629Z,6.1
2019-06-26T11:27:33.263Z,6.3
2019-06-26T11:29:12.962Z,6.3
2019-06-26T11:30:06.977Z,6.3
2019-06-26T11:31:07.215Z,6.3
2019-06-26T11:32:31.393Z,2.5
2019-06-26T11:33:34.786Z,2.5
2019-06-26T11:35:24.396Z,2.5
2019-06-26T11:36:35.474Z,2.5
2019-06-26T11:38:06.800Z,2.5
2019-06-26T11:39:25.114Z,2.5
2019-06-26T11:40:46.495Z,2.5
2019-06-26T11:41:41.481Z,2.5
2019-06-26T11:43:05.556Z,2.5
2019-06-26T11:46:29.912Z,2.5
2019-06-26T11:48:03.890Z,4.7
2019-06-26T11:49:21.259Z,4.7
2019-06-26T11:49:59.349Z,4.7
2019-06-26T11:51:21.364Z,23.3
2019-06-26T11:52:34.997Z,4.4
2019-06-26T11:53:59.687Z,4.4
2019-06-26T11:54:35.667Z,4.4
2019-06-26T11:56:13.313Z,5.2
2019-06-26T11:57:15.197Z,5.2
2019-06-26T11:58:19.756Z,5.2
2019-06-26T11:59:19.315Z,5.2
2019-06-26T12:00:32.385Z,5.2
2019-06-26T12:01:28.473Z,5.2
2019-06-26T12:02:15.969Z,1.9
2019-06-26T12:03:31.633Z,1.9
2019-06-26T12:04:37.402Z,1.9
2019-06-26T12:05:47.304Z,1.9
2019-06-26T12:06:55.347Z,1.9
2019-06-26T12:07:55.013Z,1.9
2019-06-26T12:08:53.504Z,3.0
2019-06-26T12:10:05.337Z,2.7
2019-06-26T12:11:05.568Z,2.7
2019-06-26T12:11:58.337Z,2.7
2019-06-26T12:13:33.400Z,1.1
2019-06-26T12:14:23.991Z,1.1
2019-06-26T12:14:52.145Z,4.1
2019-06-26T12:16:14.047Z,4.1
2019-06-26T12:17:46.483Z,1.6
2019-06-26T12:18:50.317Z,1.6
2019-06-26T12:20:21.112Z,1.6
2019-06-26T12:21:36.245Z,1.6
2019-06-26T12:22:53.727Z,1.6
2019-06-26T12:24:02.676Z,1.6
2019-06-26T12:25:16.773Z,1.6
2019-06-26T12:26:10.511Z,1.6
2019-06-26T12:27:10.938Z,0.2
2019-06-26T12:28:26.375Z,20.5
2019-06-26T12:29:27.747Z,20.5
2019-06-26T12:30:27.753Z,20.5
2019-06-26T12:31:47.408Z,5.0
2019-06-26T12:33:03.131Z,5.0
2019-06-26T12:34:11.273Z,5.0
2019-06-26T12:35:32.517Z,5.0
2019-06-26T12:36:55.219Z,5.0
2019-06-26T12:38:10.355Z,5.0
2019-06-26T12:39:36.324Z,5.0
2019-06-26T12:41:00.659Z,5.0
2019-06-26T12:42:46.778Z,5.0
2019-06-26T12:44:02.985Z,5.0
2019-06-26T12:45:11.995Z,5.0
2019-06-26T12:45:53.470Z,5.0
2019-06-26T12:46:55.467Z,4.4
2019-06-26T12:48:16.578Z,4.4
2019-06-26T12:49:16.549Z,4.4
2019-06-26T12:50:57.901Z,4.4
2019-06-26T12:52:16.753Z,4.4
2019-06-26T12:52:53.163Z,4.4
2019-06-26T12:54:00.529Z,1.6
2019-06-26T12:55:09.988Z,1.6
2019-06-26T12:56:16.990Z,2.5
2019-06-26T12:57:38.523Z,2.5
2019-06-26T13:01:08.328Z,2.5
2019-06-26T13:02:06.973Z,2.5
2019-06-26T13:03:32.899Z,1.6
2019-06-26T13:05:29.259Z,1.6
2019-06-26T13:07:26.056Z,1.6
2019-06-26T13:08:37.648Z,1.6
2019-06-26T13:09:57.751Z,1.6
2019-06-26T13:11:30.909Z,1.6
2019-06-26T13:12:36.605Z,1.6
2019-06-26T13:12:52.655Z,1.6
2019-06-26T13:14:01.936Z,2.5
2019-06-26T13:15:17.980Z,2.5
2019-06-26T13:16:31.337Z,0.8
2019-06-26T13:20:09.311Z,0.8
2019-06-26T13:22:01.962Z,0.8
2019-06-26T13:23:06.505Z,0.8
2019-06-26T13:23:57.105Z,0.8
2019-06-26T13:25:20.276Z,1.9
2019-06-26T13:26:27.738Z,1.9
2019-06-26T13:27:55.291Z,1.9
2019-06-26T13:30:01.124Z,1.9
2019-06-26T13:31:15.731Z,1.9
2019-06-26T13:32:41.351Z,1.9
2019-06-26T13:33:46.346Z,1.9
2019-06-26T13:34:41.051Z,1.9
2019-06-26T13:36:07.554Z,5.5
2019-06-26T13:37:12.677Z,5.5
2019-06-26T13:37:51.869Z,5.5
2019-06-26T13:39:05.177Z,0.0
2019-06-26T13:40:13.651Z,0.0
2019-06-26T13:40:55.558Z,0.0
2019-06-26T13:41:57.115Z,2.5
2019-06-26T13:43:14.046Z,2.5
2019-06-26T13:43:59.876Z,2.5
2019-06-26T13:45:04.911Z,0.8
2019-06-26T13:46:01.935Z,0.8
2019-06-26T13:47:02.975Z,16.1
2019-06-26T13:48:42.843Z,4.1
2019-06-26T13:49:42.941Z,4.1
2019-06-26T13:51:14.865Z,2.2
2019-06-26T13:52:03.020Z,2.2
2019-06-26T13:53:26.215Z,2.2
2019-06-26T13:54:13.172Z,4.1
2019-06-26T13:55:04.938Z,4.1
2019-06-26T13:55:54.853Z,4.1
2019-06-26T13:57:32.693Z,4.1
2019-06-26T13:58:21.750Z,4.1
2019-06-26T13:59:27.944Z,4.1
2019-06-26T14:00:09.151Z,4.1
2019-06-26T14:01:23.021Z,9.1
2019-06-26T14:02:33.554Z,9.1
2019-06-26T14:03:09.122Z,9.1
2019-06-26T14:04:26.209Z,8.3
2019-06-26T14:05:36.329Z,8.3
2019-06-26T14:06:19.284Z,8.3
2019-06-26T14:08:35.984Z,5.2
2019-06-26T14:09:35.186Z,1.1
2019-06-26T14:10:26.335Z,1.1
2019-06-26T14:11:34.997Z,0.2
2019-06-26T14:12:21.822Z,0.2
2019-06-26T14:13:15.957Z,0.2
2019-06-26T14:14:16.645Z,1.1
2019-06-26T14:15:12.353Z,1.1
2019-06-26T14:16:17.873Z,3.6
2019-06-26T14:17:47.823Z,3.6
2019-06-26T14:18:10.656Z,3.6
2019-06-26T14:19:36.898Z,4.1
2019-06-26T14:20:29.105Z,4.1
2019-06-26T14:21:34.072Z,4.1
2019-06-26T14:22:19.114Z,5.2
2019-06-26T14:23:10.202Z,5.2
2019-06-26T14:24:21.988Z,3.8
2019-06-26T14:25:29.410Z,3.8
2019-06-26T14:27:08.451Z,3.8
2019-06-26T14:27:40.681Z,3.8
2019-06-26T14:28:41.454Z,5.0
2019-06-26T14:29:39.479Z,25.0
2019-06-26T14:30:31.622Z,25.0
2019-06-26T14:32:08.428Z,4.4
2019-06-26T14:32:40.055Z,4.4
2019-06-26T14:33:52.168Z,4.4
2019-06-26T14:34:39.672Z,6.9
2019-06-26T14:35:42.433Z,6.9
2019-06-26T14:36:58.132Z,4.7
2019-06-26T14:38:01.338Z,4.7
2019-06-26T14:38:46.198Z,4.7
2019-06-26T14:39:45.622Z,4.7
2019-06-26T14:40:49.589Z,4.7
2019-06-26T14:41:46.040Z,4.7
2019-06-26T14:44:13.387Z,4.1
2019-06-26T14:45:20.676Z,4.1
2019-06-26T14:46:41.285Z,4.1
2019-06-26T14:47:16.983Z,3.0
2019-06-26T14:48:08.797Z,3.0
2019-06-26T14:49:44.635Z,3.0
2019-06-26T14:50:46.648Z,25.2
2019-06-26T14:51:48.504Z,25.2
2019-06-26T14:52:57.223Z,25.2
2019-06-26T14:53:40.035Z,25.2
2019-06-26T14:54:45.593Z,5.8
2019-06-26T14:55:14.823Z,5.8
2019-06-26T14:56:45.502Z,5.8
2019-06-26T14:57:25.863Z,1.9
2019-06-26T14:58:49.044Z,1.9
2019-06-26T14:59:59.546Z,1.9
2019-06-26T15:00:31.046Z,1.9
2019-06-26T15:02:11.049Z,1.3
2019-06-26T15:02:45.427Z,1.3
2019-06-26T15:03:49.199Z,3.0
2019-06-26T15:04:33.166Z,4.1
2019-06-26T15:06:17.369Z,4.1
2019-06-26T15:07:01.897Z,4.1
2019-06-26T15:08:06.684Z,5.2
2019-06-26T15:08:50.033Z,5.2
2019-06-26T15:10:11.255Z,6.6
2019-06-26T15:11:09.168Z,6.6
2019-06-26T15:14:15.891Z,6.6
2019-06-26T15:15:14.065Z,3.8
2019-06-26T15:16:09.471Z,3.8
2019-06-26T15:17:01.843Z,3.8
2019-06-26T15:18:13.463Z,0.8
2019-06-26T15:19:19.017Z,0.8
2019-06-26T15:20:07.297Z,0.8
2019-06-26T15:21:26.155Z,0.8
2019-06-26T15:22:44.701Z,0.8
2019-06-26T15:23:21.425Z,0.8
2019-06-26T15:24:07.904Z,2.7
2019-06-26T15:25:22.446Z,6.3
2019-06-26T15:26:12.425Z,6.3
2019-06-26T15:27:35.102Z,6.3
2019-06-26T15:28:53.246Z,3.0
2019-06-26T15:29:33.522Z,3.0
2019-06-26T15:30:30.853Z,2.2
2019-06-26T15:31:52.743Z,2.2
2019-06-26T15:32:40.500Z,2.2
2019-06-26T15:33:37.445Z,5.5
2019-06-26T15:35:55.287Z,3.3